Time;durP1;ratioP1;P1;durP2;ratioP2;P2;SDS_P1;SDS_P2;PMS_P1;PMS_P2;Temp;Humidity;BMP_temperature;BMP_pressure;BME280_temperature;BME280_humidity;BME280_pressure;Samples;Min_cycle;Max_cycle;Signal;HPM_P1;HPM_P2
2021/10/14 00:02:07;;;;;;;1999.90;999.90;;;;;;;5.57;56.96;101848.06;5039665;27;97672;-69
2021/10/14 00:04:35;;;;;;;1999.90;999.90;;;;;;;5.57;56.76;101850.72;5072565;27;97958;-70
2021/10/14 00:07:03;;;;;;;1999.90;999.90;;;;;;;5.55;56.71;101848.78;5056729;27;101289;-71
2021/10/14 00:09:31;;;;;;;1999.90;999.90;;;;;;;5.55;56.61;101855.00;5059269;27;97703;-69
2021/10/14 00:11:58;;;;;;;1999.90;999.90;;;;;;;5.56;56.91;101845.31;5056692;27;98750;-70
2021/10/14 00:14:28;;;;;;;1999.90;999.90;;;;;;;5.57;56.45;101847.16;5039505;27;99344;-72
2021/10/14 00:16:55;;;;;;;1999.90;999.90;;;;;;;5.59;56.53;101849.06;5037914;27;97921;-68
2021/10/14 00:19:23;;;;;;;1999.90;999.90;;;;;;;5.60;56.64;101847.31;5074393;27;98001;-70
2021/10/14 00:21:51;;;;;;;1999.90;999.90;;;;;;;5.61;56.39;101850.03;5056505;27;97555;-72
2021/10/14 00:24:19;;;;;;;1999.90;999.90;;;;;;;5.57;56.99;101837.50;5055684;27;96932;-73
2021/10/14 00:26:47;;;;;;;1999.90;999.90;;;;;;;5.58;56.82;101838.41;5072699;27;97832;-71
2021/10/14 00:29:14;;;;;;;1999.90;999.90;;;;;;;5.58;56.82;101841.94;5056606;27;96951;-70
2021/10/14 00:31:44;;;;;;;1999.90;999.90;;;;;;;5.57;56.61;101837.50;5040131;27;97346;-70
2021/10/14 00:34:11;;;;;;;1999.90;999.90;;;;;;;5.58;56.48;101836.69;5058339;27;98832;-70
2021/10/14 00:36:39;;;;;;;1999.90;999.90;;;;;;;5.59;56.43;101833.22;5057858;27;97880;-67
2021/10/14 00:39:07;;;;;;;1999.90;999.90;;;;;;;5.58;56.46;101835.75;5056430;27;97836;-71
2021/10/14 00:41:35;;;;;;;1999.90;999.90;;;;;;;5.55;57.07;101830.31;5057343;27;97360;-70
2021/10/14 00:44:03;;;;;;;1999.90;999.90;;;;;;;5.52;56.92;101833.66;5040440;27;100709;-69
2021/10/14 00:46:31;;;;;;;1999.90;999.90;;;;;;;5.51;56.64;101823.94;5057268;27;100332;-69
2021/10/14 00:49:00;;;;;;;1999.90;999.90;;;;;;;5.48;57.29;101826.41;5057409;27;97553;-69
2021/10/14 00:51:28;;;;;;;1999.90;999.90;;;;;;;5.47;57.16;101824.59;5039815;27;97026;-69
2021/10/14 00:53:56;;;;;;;1999.90;999.90;;;;;;;5.39;57.57;101817.97;5054794;27;97620;-68
2021/10/14 00:56:24;;;;;;;1999.90;999.90;;;;;;;5.39;57.33;101817.97;5038788;27;100237;-68
2021/10/14 00:58:51;;;;;;;1999.90;999.90;;;;;;;5.37;57.27;101811.69;5038868;27;97305;-70
2021/10/14 01:01:19;;;;;;;1999.90;999.90;;;;;;;5.36;57.51;101814.25;5057947;27;99174;-69
2021/10/14 01:03:47;;;;;;;1999.90;999.90;;;;;;;5.37;57.17;101808.13;5039347;27;99726;-69
2021/10/14 01:06:16;;;;;;;1999.90;999.90;;;;;;;5.35;57.18;101797.50;5056239;27;99063;-68
2021/10/14 01:08:44;;;;;;;1999.90;999.90;;;;;;;5.36;57.33;101791.38;5057035;27;97193;-68
2021/10/14 01:11:12;;;;;;;1999.90;999.90;;;;;;;5.36;56.96;101786.09;5039140;27;96835;-70
2021/10/14 01:13:40;;;;;;;1999.90;999.90;;;;;;;5.38;57.07;101789.72;5054618;27;98864;-72
2021/10/14 01:16:07;;;;;;;1999.90;999.90;;;;;;;5.40;56.89;101784.53;5056746;27;98077;-68
2021/10/14 01:18:35;;;;;;;1999.90;999.90;;;;;;;5.42;56.70;101777.63;5056269;27;98044;-68
2021/10/14 01:21:04;;;;;;;1999.90;999.90;;;;;;;5.41;57.19;101787.25;5056541;27;97872;-70
2021/10/14 01:23:32;;;;;;;1999.90;999.90;;;;;;;5.41;57.20;101778.47;5055241;27;97830;-69
2021/10/14 01:26:00;;;;;;;1999.90;999.90;;;;;;;5.40;57.13;101780.19;5056626;27;98659;-71
2021/10/14 01:28:28;;;;;;;1999.90;999.90;;;;;;;5.42;57.01;101775.91;5054810;27;97314;-68
2021/10/14 01:30:55;;;;;;;1999.90;999.90;;;;;;;5.46;57.04;101774.34;5057030;27;97821;-72
2021/10/14 01:33:30;;;;;;;1999.90;999.90;;;;;;;5.47;56.94;101774.44;5055258;27;99693;-69
2021/10/14 01:35:58;;;;;;;1999.90;999.90;;;;;;;5.48;57.06;101778.91;5057107;27;97648;-72
2021/10/14 01:38:27;;;;;;;1999.90;999.90;;;;;;;5.49;56.92;101775.44;5054568;27;98818;-69
2021/10/14 01:40:55;;;;;;;1999.90;999.90;;;;;;;5.49;57.24;101775.44;5071404;27;97438;-71
2021/10/14 01:43:23;;;;;;;1999.90;999.90;;;;;;;5.48;57.07;101772.72;5054993;27;97844;-68
2021/10/14 01:45:51;;;;;;;1999.90;999.90;;;;;;;5.47;57.32;101765.59;5053554;27;97754;-67
2021/10/14 01:48:19;;;;;;;1999.90;999.90;;;;;;;5.50;56.99;101764.06;5055652;27;98034;-71
2021/10/14 01:50:47;;;;;;;1999.90;999.90;;;;;;;5.50;57.36;101761.44;5037448;27;96793;-68
2021/10/14 01:53:15;;;;;;;1999.90;999.90;;;;;;;5.47;57.41;101755.94;5055733;27;100444;-72
2021/10/14 01:55:44;;;;;;;1999.90;999.90;;;;;;;5.45;57.40;101747.03;5056650;27;98846;-67
2021/10/14 01:58:17;;;;;;;1999.90;999.90;;;;;;;5.42;57.61;101744.22;5058026;27;99141;-68
2021/10/14 02:00:45;;;;;;;1999.90;999.90;;;;;;;5.42;57.35;101738.03;5053831;27;97182;-67
2021/10/14 02:03:13;;;;;;;1999.90;999.90;;;;;;;5.41;57.53;101739.75;5054555;27;98519;-71
2021/10/14 02:05:42;;;;;;;1999.90;999.90;;;;;;;5.41;57.16;101730.94;5053640;27;101640;-71
2021/10/14 02:08:10;;;;;;;1999.90;999.90;;;;;;;5.42;57.26;101736.31;5056040;27;96801;-68
2021/10/14 02:10:38;;;;;;;1999.90;999.90;;;;;;;5.41;57.40;101723.03;5054590;27;97973;-68
2021/10/14 02:13:07;;;;;;;1999.90;999.90;;;;;;;5.43;57.46;101732.84;5037426;27;99405;-72
2021/10/14 02:15:35;;;;;;;1999.90;999.90;;;;;;;5.43;57.47;101722.28;5053268;27;97955;-70
2021/10/14 02:18:03;;;;;;;1999.90;999.90;;;;;;;5.44;57.47;101720.56;5054081;27;96851;-71
2021/10/14 02:20:31;;;;;;;1999.90;999.90;;;;;;;5.45;57.44;101725.91;5055680;27;97302;-69
2021/10/14 02:22:58;;;;;;;1999.90;999.90;;;;;;;5.45;57.53;101725.91;5054395;27;98871;-71
2021/10/14 02:25:27;;;;;;;1999.90;999.90;;;;;;;5.43;57.45;101716.13;5053006;27;99158;-68
2021/10/14 02:27:55;;;;;;;1999.90;999.90;;;;;;;5.43;57.84;101718.75;5053571;27;97744;-70
2021/10/14 02:30:24;;;;;;;1999.90;999.90;;;;;;;5.42;57.67;101715.19;5054010;27;97311;-68
2021/10/14 02:32:52;;;;;;;1999.90;999.90;;;;;;;5.44;57.46;101712.63;5038678;27;98554;-67
2021/10/14 02:35:19;;;;;;;1999.90;999.90;;;;;;;5.42;57.78;101725.75;5057586;27;100403;-71
2021/10/14 02:37:47;;;;;;;1999.90;999.90;;;;;;;5.40;57.73;101706.28;5057281;27;96815;-70
2021/10/14 02:40:15;;;;;;;1999.90;999.90;;;;;;;5.41;57.87;101710.72;5057046;27;98785;-69
2021/10/14 02:42:43;;;;;;;1999.90;999.90;;;;;;;5.42;57.80;101709.91;5039603;27;99823;-71
2021/10/14 02:45:11;;;;;;;1999.90;999.90;;;;;;;5.41;57.87;101702.78;5059051;27;98720;-68
2021/10/14 02:47:40;;;;;;;1999.90;999.90;;;;;;;5.43;57.63;101714.34;5056409;27;98137;-68
2021/10/14 02:50:08;;;;;;;1999.90;999.90;;;;;;;5.42;57.79;101704.63;5058994;27;99426;-72
2021/10/14 02:52:36;;;;;;;1999.90;999.90;;;;;;;5.42;57.76;101703.72;5057610;27;99817;-68
2021/10/14 02:55:04;;;;;;;1999.90;999.90;;;;;;;5.41;57.85;101699.28;5040233;27;100598;-71
2021/10/14 02:57:32;;;;;;;1999.90;999.90;;;;;;;5.38;57.78;101700.00;5039124;27;98012;-67
2021/10/14 03:00:00;;;;;;;1999.90;999.90;;;;;;;5.36;58.20;101704.28;5058796;27;96913;-70
2021/10/14 03:02:28;;;;;;;1999.90;999.90;;;;;;;5.36;57.99;101695.47;5058434;27;97934;-70
2021/10/14 03:04:57;;;;;;;1999.90;999.90;;;;;;;5.33;58.04;101693.56;5058061;27;100403;-72
2021/10/14 03:07:25;;;;;;;1999.90;999.90;;;;;;;5.33;57.84;101693.56;5057071;27;97391;-66
2021/10/14 03:09:53;;;;;;;1999.90;999.90;;;;;;;5.34;58.01;101691.84;5058719;27;97818;-71
2021/10/14 03:12:21;;;;;;;1999.90;999.90;;;;;;;5.33;58.05;101688.28;5056198;27;97977;-69
2021/10/14 03:14:48;;;;;;;1999.90;999.90;;;;;;;5.33;57.97;101683.00;5057688;27;97634;-71
2021/10/14 03:17:16;;;;;;;1999.90;999.90;;;;;;;5.33;58.26;101688.28;5055541;27;97344;-71
2021/10/14 03:19:44;;;;;;;1999.90;999.90;;;;;;;5.33;58.33;101683.00;5057340;27;97966;-68
2021/10/14 03:22:13;;;;;;;1999.90;999.90;;;;;;;5.32;58.46;101683.81;5056085;27;97655;-71
2021/10/14 03:24:41;;;;;;;1999.90;999.90;;;;;;;5.33;58.49;101676.81;5058319;27;97596;-69
2021/10/14 03:27:09;;;;;;;1999.90;999.90;;;;;;;5.36;58.17;101691.09;5038868;27;98001;-69
2021/10/14 03:29:37;;;;;;;1999.90;999.90;;;;;;;5.37;58.27;101684.09;5056700;27;97322;-71
2021/10/14 03:32:05;;;;;;;1999.90;999.90;;;;;;;5.38;58.29;101684.16;5039575;27;97975;-70
2021/10/14 03:34:33;;;;;;;1999.90;999.90;;;;;;;5.40;58.19;101677.25;5058137;27;98967;-71
2021/10/14 03:37:01;;;;;;;1999.90;999.90;;;;;;;5.41;58.22;101684.31;5056915;27;97419;-69
2021/10/14 03:39:30;;;;;;;1999.90;999.90;;;;;;;5.41;57.97;101681.69;5057150;27;97444;-70
2021/10/14 03:41:58;;;;;;;1999.90;999.90;;;;;;;5.40;58.34;101682.53;5056557;27;98724;-68
2021/10/14 03:44:26;;;;;;;1999.90;999.90;;;;;;;5.40;58.02;101678.97;5056408;27;100379;-71
2021/10/14 03:46:54;;;;;;;1999.90;999.90;;;;;;;5.38;58.52;101686.81;5057086;27;96988;-68
2021/10/14 03:49:22;;;;;;;1999.90;999.90;;;;;;;5.38;58.49;101677.97;5056727;27;98859;-70
2021/10/14 03:51:49;;;;;;;1999.90;999.90;;;;;;;5.36;58.93;101682.28;5056657;27;99362;-71
2021/10/14 03:54:17;;;;;;;1999.90;999.90;;;;;;;5.35;58.71;101681.38;5057314;27;99323;-70
2021/10/14 03:56:46;;;;;;;1999.90;999.90;;;;;;;5.34;58.95;101690.09;5038876;27;97779;-69
2021/10/14 03:59:14;;;;;;;1999.90;999.90;;;;;;;5.35;58.49;101683.09;5057842;27;98726;-68
2021/10/14 04:01:42;;;;;;;1999.90;999.90;;;;;;;5.36;58.49;101683.16;5033147;27;98813;-69
2021/10/14 04:04:10;;;;;;;1999.90;999.90;;;;;;;5.35;58.58;101678.72;5050456;27;99044;-70
2021/10/14 04:06:38;;;;;;;1999.90;999.90;;;;;;;5.35;58.92;101678.72;5052599;27;97851;-70
2021/10/14 04:09:05;;;;;;;1999.90;999.90;;;;;;;5.37;59.02;101690.28;5056165;27;98008;-68
2021/10/14 04:11:34;;;;;;;1999.90;999.90;;;;;;;5.37;58.73;101682.38;5071022;27;99781;-68
2021/10/14 04:14:04;;;;;;;1999.90;999.90;;;;;;;5.41;58.32;101681.69;5050265;27;98471;-70
2021/10/14 04:16:32;;;;;;;1999.90;999.90;;;;;;;5.44;58.51;101678.31;5054963;27;98428;-70
2021/10/14 04:18:59;;;;;;;1999.90;999.90;;;;;;;5.45;58.64;101672.25;5053699;27;98253;-68
2021/10/14 04:21:28;;;;;;;1999.90;999.90;;;;;;;5.48;58.44;101678.59;5071109;27;98673;-69
2021/10/14 04:23:56;;;;;;;1999.90;999.90;;;;;;;5.52;58.28;101669.09;5055613;27;99817;-68
2021/10/14 04:26:24;;;;;;;1999.90;999.90;;;;;;;5.55;58.32;101678.09;5055223;27;97241;-69
2021/10/14 04:28:52;;;;;;;1999.90;999.90;;;;;;;5.59;58.07;101680.09;5056290;27;97164;-67
2021/10/14 04:31:21;;;;;;;1999.90;999.90;;;;;;;5.61;58.48;101674.91;5056751;27;97783;-66
2021/10/14 04:33:49;;;;;;;1999.90;999.90;;;;;;;5.62;58.46;101672.34;5058253;27;97764;-69
2021/10/14 04:36:17;;;;;;;1999.90;999.90;;;;;;;5.64;58.96;101675.06;5055319;27;97868;-70
2021/10/14 04:38:45;;;;;;;1999.90;999.90;;;;;;;5.67;58.59;101676.13;5067754;27;97685;-71
2021/10/14 04:41:13;;;;;;;1999.90;999.90;;;;;;;5.70;58.31;101675.41;5057934;27;98945;-69
2021/10/14 04:43:41;;;;;;;1999.90;999.90;;;;;;;5.72;58.63;101668.47;5039684;27;100817;-68
2021/10/14 04:46:08;;;;;;;1999.90;999.90;;;;;;;5.73;58.57;101670.28;5057007;27;96749;-68
2021/10/14 04:48:38;;;;;;;1999.90;999.90;;;;;;;5.74;58.59;101667.72;5055887;27;98354;-71
2021/10/14 04:51:06;;;;;;;1999.90;999.90;;;;;;;5.77;58.19;101667.91;5054039;27;101102;-69
2021/10/14 04:53:33;;;;;;;1999.90;999.90;;;;;;;5.78;58.33;101669.69;5056995;27;97540;-71
2021/10/14 04:56:02;;;;;;;1999.90;999.90;;;;;;;5.80;58.64;101668.06;5056966;27;98054;-69
2021/10/14 04:58:31;;;;;;;1999.90;999.90;;;;;;;5.83;58.28;101672.59;5055853;27;97757;-68
2021/10/14 05:00:59;;;;;;;1999.90;999.90;;;;;;;5.85;58.38;101669.19;5056220;27;97782;-67
2021/10/14 05:03:27;;;;;;;1999.90;999.90;;;;;;;5.89;58.61;101660.63;5058192;27;99743;-69
2021/10/14 05:05:56;;;;;;;1999.90;999.90;;;;;;;5.92;58.83;101657.25;5057949;27;97610;-67
2021/10/14 05:08:24;;;;;;;1999.90;999.90;;;;;;;5.89;59.04;101652.69;5040018;27;97908;-68
2021/10/14 05:10:52;;;;;;;1999.90;999.90;;;;;;;5.90;58.85;101662.44;5058204;27;97666;-68
2021/10/14 05:13:22;;;;;;;1999.90;999.90;;;;;;;5.90;58.77;101649.22;5055737;27;99446;-71
2021/10/14 05:15:50;;;;;;;1999.90;999.90;;;;;;;5.92;58.78;101658.13;5056712;27;96832;-68
2021/10/14 05:18:18;;;;;;;1999.90;999.90;;;;;;;5.92;59.29;101647.56;5054895;27;97186;-72
2021/10/14 05:20:46;;;;;;;1999.90;999.90;;;;;;;5.94;59.07;101660.88;5057713;27;98121;-67
2021/10/14 05:23:15;;;;;;;1999.90;999.90;;;;;;;5.96;58.99;101661.84;5054921;27;101270;-70
2021/10/14 05:25:43;;;;;;;1999.90;999.90;;;;;;;5.98;58.98;101658.47;5050875;27;97402;-68
2021/10/14 05:28:11;;;;;;;1999.90;999.90;;;;;;;6.01;58.49;101661.28;5055055;27;97906;-69
2021/10/14 05:30:39;;;;;;;1999.90;999.90;;;;;;;6.04;58.67;101665.81;5054502;27;97568;-69
2021/10/14 05:33:06;;;;;;;1999.90;999.90;;;;;;;6.06;58.63;101661.53;5053235;27;98567;-70
2021/10/14 05:35:36;;;;;;;1999.90;999.90;;;;;;;6.11;58.64;101665.31;5038490;27;97670;-68
2021/10/14 05:38:04;;;;;;;1999.90;999.90;;;;;;;6.10;59.24;101668.81;5055387;27;98106;-68
2021/10/14 05:40:34;;;;;;;1999.90;999.90;;;;;;;6.04;59.60;101669.38;5053762;27;99143;-68
2021/10/14 05:43:02;;;;;;;1999.90;999.90;;;;;;;6.09;59.08;101673.16;5057214;27;97428;-68
2021/10/14 05:45:30;;;;;;;1999.90;999.90;;;;;;;6.12;59.24;101668.03;5058029;27;97378;-68
2021/10/14 05:47:58;;;;;;;1999.90;999.90;;;;;;;6.13;59.37;101675.16;5054407;27;97433;-73
2021/10/14 05:50:40;;;;;;;1999.90;999.90;;;;;;;6.07;59.27;101668.63;5055272;27;97178;-67
2021/10/14 05:53:23;;;;;;;1999.90;999.90;;;;;;;6.08;59.39;101662.53;5056222;27;98357;-70
2021/10/14 05:55:52;;;;;;;1999.90;999.90;;;;;;;6.08;59.29;101673.09;5056926;27;97783;-68
2021/10/14 05:58:21;;;;;;;1999.90;999.90;;;;;;;6.09;59.57;101664.31;5055570;27;98114;-71
2021/10/14 06:00:49;;;;;;;1999.90;999.90;;;;;;;6.12;58.97;101665.41;5056998;27;99372;-69
2021/10/14 06:03:17;;;;;;;1999.90;999.90;;;;;;;6.12;59.50;101667.16;5055822;27;97400;-67
2021/10/14 06:05:45;;;;;;;1999.90;999.90;;;;;;;6.09;59.81;101659.97;5056113;27;98501;-67
2021/10/14 06:08:13;;;;;;;1999.90;999.90;;;;;;;6.13;59.02;101664.59;5055367;27;97593;-69
2021/10/14 06:10:41;;;;;;;1999.90;999.90;;;;;;;6.15;59.37;101664.66;5057542;27;100430;-70
2021/10/14 06:13:10;;;;;;;1999.90;999.90;;;;;;;6.18;59.29;101663.09;5055816;27;99682;-69
2021/10/14 06:15:39;;;;;;;1999.90;999.90;;;;;;;6.21;59.07;101663.22;5056674;27;97803;-67
2021/10/14 06:18:07;;;;;;;1999.90;999.90;;;;;;;6.24;58.94;101663.41;5057133;27;97992;-70
2021/10/14 06:20:35;;;;;;;1999.90;999.90;;;;;;;6.27;59.04;101669.72;5059762;27;97568;-67
2021/10/14 06:23:04;;;;;;;1999.90;999.90;;;;;;;6.28;58.85;101664.53;5056798;27;97523;-67
2021/10/14 06:25:31;;;;;;;1999.90;999.90;;;;;;;6.30;59.03;101667.22;5055554;27;98149;-70
2021/10/14 06:27:59;;;;;;;1999.90;999.90;;;;;;;6.34;58.78;101666.56;5058352;27;97004;-69
2021/10/14 06:30:29;;;;;;;1999.90;999.90;;;;;;;6.33;59.29;101670.03;5056221;27;97246;-70
2021/10/14 06:32:57;;;;;;;1999.90;999.90;;;;;;;6.31;59.23;101674.31;5057729;27;97161;-71
2021/10/14 06:35:25;;;;;;;1999.90;999.90;;;;;;;6.31;59.29;101664.66;5038620;27;97023;-70
2021/10/14 06:37:53;;;;;;;1999.90;999.90;;;;;;;6.30;59.58;101677.81;5056669;27;97536;-70
2021/10/14 06:40:21;;;;;;;1999.90;999.90;;;;;;;6.32;59.19;101676.16;5037670;27;97919;-70
2021/10/14 06:42:52;;;;;;;1999.90;999.90;;;;;;;6.31;59.67;101666.38;5038758;27;100806;-68
2021/10/14 06:45:20;;;;;;;1999.90;999.90;;;;;;;6.34;58.72;101671.84;5056788;27;97020;-67
2021/10/14 06:47:49;;;;;;;1999.90;999.90;;;;;;;6.33;59.30;101675.31;5056084;27;98049;-67
2021/10/14 06:50:17;;;;;;;1999.90;999.90;;;;;;;6.31;59.18;101669.03;5038291;27;99216;-70
2021/10/14 06:52:45;;;;;;;1999.90;999.90;;;;;;;6.32;59.45;101670.88;5057196;27;98436;-69
2021/10/14 06:55:13;;;;;;;1999.90;999.90;;;;;;;6.31;59.50;101671.69;5039585;27;97133;-69
2021/10/14 06:57:41;;;;;;;1999.90;999.90;;;;;;;6.30;59.76;101675.16;5038836;27;97934;-69
2021/10/14 07:00:10;;;;;;;1999.90;999.90;;;;;;;6.30;59.87;101673.44;5056462;27;97818;-67
2021/10/14 07:02:38;;;;;;;1999.90;999.90;;;;;;;6.31;59.33;101679.59;5056750;27;96819;-70
2021/10/14 07:05:08;;;;;;;1999.90;999.90;;;;;;;6.32;59.29;101673.50;5056200;27;96700;-72
2021/10/14 07:07:36;;;;;;;1999.90;999.90;;;;;;;6.32;59.87;101670.88;5055489;27;98046;-70
2021/10/14 07:10:07;;;;;;;1999.90;999.90;;;;;;;6.37;59.27;101664.06;5055748;27;99795;-71
2021/10/14 07:12:37;;;;;;;1999.90;999.90;;;;;;;6.40;59.29;101669.53;5057594;27;98116;-69
2021/10/14 07:15:06;;;;;;;1999.90;999.90;;;;;;;6.42;59.30;101674.06;5038676;27;97278;-67
2021/10/14 07:17:34;;;;;;;1999.90;999.90;;;;;;;6.45;59.55;101668.03;5054167;27;97553;-72
2021/10/14 07:20:02;;;;;;;1999.90;999.90;;;;;;;6.45;59.98;101668.91;5060202;27;98150;-67
2021/10/14 07:22:31;;;;;;;1999.90;999.90;;;;;;;6.47;59.60;101667.28;5042414;27;100141;-66
2021/10/14 07:24:59;;;;;;;1999.90;999.90;;;;;;;6.50;59.68;101666.53;5041756;27;97143;-67
2021/10/14 07:27:27;;;;;;;1999.90;999.90;;;;;;;6.49;59.37;101664.72;5058783;27;97365;-69
2021/10/14 07:29:55;;;;;;;1999.90;999.90;;;;;;;6.48;59.82;101662.91;5059231;27;99487;-70
2021/10/14 07:32:23;;;;;;;1999.90;999.90;;;;;;;6.50;59.51;101663.88;5058715;27;99459;-68
2021/10/14 07:34:50;;;;;;;1999.90;999.90;;;;;;;6.53;59.63;101666.69;5059848;27;97913;-69
2021/10/14 07:37:19;;;;;;;1999.90;999.90;;;;;;;6.55;59.58;101675.59;5058913;27;98032;-67
2021/10/14 07:39:49;;;;;;;1999.90;999.90;;;;;;;6.54;60.35;101674.72;5041787;27;99452;-70
2021/10/14 07:42:17;;;;;;;1999.90;999.90;;;;;;;6.55;60.05;101680.88;5059794;27;99460;-69
2021/10/14 07:44:44;;;;;;;1999.90;999.90;;;;;;;6.54;60.62;101676.44;5059021;27;97325;-69
2021/10/14 07:47:12;;;;;;;1999.90;999.90;;;;;;;6.58;60.26;101678.44;5059476;27;97995;-69
2021/10/14 07:49:40;;;;;;;1999.90;999.90;;;;;;;6.61;60.24;101673.28;5057061;27;100509;-68
2021/10/14 07:52:08;;;;;;;1999.90;999.90;;;;;;;6.62;60.20;101685.66;5058507;27;100842;-69
2021/10/14 07:54:36;;;;;;;1999.90;999.90;;;;;;;6.64;60.14;101679.63;5058694;27;97634;-68
2021/10/14 07:57:06;;;;;;;1999.90;999.90;;;;;;;6.69;59.81;101679.88;5060313;27;97958;-68
2021/10/14 07:59:33;;;;;;;1999.90;999.90;;;;;;;6.70;60.00;101682.59;5057529;27;101285;-70
2021/10/14 08:02:01;;;;;;;1999.90;999.90;;;;;;;6.74;60.17;101691.59;5059891;27;97983;-70
2021/10/14 08:04:29;;;;;;;1999.90;999.90;;;;;;;6.73;60.27;101690.69;5042175;27;97745;-71
2021/10/14 08:06:57;;;;;;;1999.90;999.90;;;;;;;6.75;60.42;101701.34;5041305;27;96889;-70
2021/10/14 08:09:25;;;;;;;1999.90;999.90;;;;;;;6.75;60.75;101696.03;5075252;27;98587;-69
2021/10/14 08:11:53;;;;;;;1999.90;999.90;;;;;;;6.78;60.52;101690.94;5042407;27;98001;-69
2021/10/14 08:14:22;;;;;;;1999.90;999.90;;;;;;;6.79;60.37;101692.72;5060172;27;97742;-69
2021/10/14 08:16:50;;;;;;;1999.90;999.90;;;;;;;6.80;60.64;101689.25;5058310;27;97250;-71
2021/10/14 08:19:18;;;;;;;1999.90;999.90;;;;;;;6.86;60.57;101700.13;5059381;27;98049;-71
2021/10/14 08:21:46;;;;;;;1999.90;999.90;;;;;;;6.87;60.24;101696.69;5059165;27;97969;-71
2021/10/14 08:24:13;;;;;;;1999.90;999.90;;;;;;;6.92;59.72;101688.16;5041414;27;97278;-70
2021/10/14 08:26:41;;;;;;;1999.90;999.90;;;;;;;6.97;59.68;101691.00;5057246;27;97744;-70
2021/10/14 08:29:09;;;;;;;1999.90;999.90;;;;;;;7.00;59.87;101691.16;5057677;27;99389;-70
2021/10/14 08:31:38;;;;;;;1999.90;999.90;;;;;;;6.95;60.66;101690.03;5058753;27;99349;-68
2021/10/14 08:34:06;;;;;;;1999.90;999.90;;;;;;;6.98;60.42;101691.06;5059047;27;97207;-71
2021/10/14 08:36:34;;;;;;;1999.90;999.90;;;;;;;6.99;60.48;101686.69;5057912;27;97971;-67
2021/10/14 08:39:02;;;;;;;1999.90;999.90;;;;;;;7.05;60.12;101682.59;5059505;27;97726;-71
2021/10/14 08:41:30;;;;;;;1999.90;999.90;;;;;;;7.06;60.33;101695.03;5059150;27;98366;-68
2021/10/14 08:43:58;;;;;;;1999.90;999.90;;;;;;;7.12;59.77;101681.19;5057367;27;97406;-67
2021/10/14 08:46:26;;;;;;;1999.90;999.90;;;;;;;7.16;60.02;101696.41;5058721;27;97491;-70
2021/10/14 08:48:55;;;;;;;1999.90;999.90;;;;;;;7.16;59.95;101691.09;5058295;27;99404;-70
2021/10/14 08:51:23;;;;;;;1999.90;999.90;;;;;;;7.20;60.07;101688.66;5058846;27;97758;-69
2021/10/14 08:53:51;;;;;;;1999.90;999.90;;;;;;;7.23;60.13;101683.53;5041600;27;96910;-71
2021/10/14 08:56:19;;;;;;;1999.90;999.90;;;;;;;7.29;59.75;101682.91;5058315;27;98038;-68
2021/10/14 08:58:48;;;;;;;1999.90;999.90;;;;;;;7.35;59.34;101675.25;5058986;27;98927;-70
2021/10/14 09:01:16;;;;;;;1999.90;999.90;;;;;;;7.38;59.57;101675.44;5057747;27;97772;-70
2021/10/14 09:03:47;;;;;;;1999.90;999.90;;;;;;;7.40;59.56;101676.38;5058070;27;97904;-70
2021/10/14 09:06:17;;;;;;;1999.90;999.90;;;;;;;7.37;59.68;101678.91;5058045;27;97667;-70
2021/10/14 09:08:47;;;;;;;1999.90;999.90;;;;;;;7.39;59.25;101685.19;5039721;27;100748;-68
2021/10/14 09:11:16;;;;;;;1999.90;999.90;;;;;;;7.40;59.67;101681.69;5073470;27;101720;-69
2021/10/14 09:13:47;;;;;;;1999.90;999.90;;;;;;;7.41;59.68;101686.19;5057406;27;96955;-69
2021/10/14 09:16:23;;;;;;;1999.90;999.90;;;;;;;7.38;61.41;101683.38;5041327;27;98151;-68
2021/10/14 09:18:52;;;;;;;1999.90;999.90;;;;;;;7.42;59.21;101674.75;5039075;27;100582;-67
2021/10/14 09:21:29;;;;;;;1999.90;999.90;;;;;;;7.41;60.54;101672.97;5056293;27;99236;-69
2021/10/14 09:23:58;;;;;;;1999.90;999.90;;;;;;;7.43;59.35;101681.88;5058986;27;97271;-71
2021/10/14 09:26:28;;;;;;;1999.90;999.90;;;;;;;7.47;59.60;101683.84;5057398;27;97910;-71
2021/10/14 09:29:07;;;;;;;1999.90;999.90;;;;;;;7.48;60.78;101683.00;5059276;27;96735;-71
2021/10/14 09:31:49;;;;;;;1999.90;999.90;;;;;;;7.50;60.00;101680.41;5072998;27;98172;-69
2021/10/14 09:34:33;;;;;;;1999.90;999.90;;;;;;;7.51;60.19;101677.84;5056996;27;98182;-68
2021/10/14 09:37:04;;;;;;;1999.90;999.90;;;;;;;7.54;59.26;101670.06;5040211;27;97294;-69
2021/10/14 09:39:32;;;;;;;1999.90;999.90;;;;;;;7.55;59.29;101671.84;5038671;27;101191;-70
2021/10/14 09:42:00;;;;;;;1999.90;999.90;;;;;;;7.60;59.15;101675.63;5055680;27;97878;-71
2021/10/14 09:44:50;;;;;;;1999.90;999.90;;;;;;;7.64;59.46;101668.72;5058596;27;97952;-70
2021/10/14 09:47:18;;;;;;;1999.90;999.90;;;;;;;7.67;59.22;101666.25;5039116;27;98134;-71
2021/10/14 09:49:46;;;;;;;1999.90;999.90;;;;;;;7.71;58.90;101666.44;5056412;27;97982;-69
2021/10/14 09:52:15;;;;;;;1999.90;999.90;;;;;;;7.75;59.01;101678.09;5058354;27;97532;-71
2021/10/14 09:54:43;;;;;;;1999.90;999.90;;;;;;;7.81;58.84;101676.66;5057851;27;98548;-67
2021/10/14 09:57:10;;;;;;;1999.90;999.90;;;;;;;7.83;59.07;101674.97;5056184;27;97013;-69
2021/10/14 09:59:38;;;;;;;1999.90;999.90;;;;;;;7.87;58.98;101676.94;5039112;27;98072;-70
2021/10/14 10:02:07;;;;;;;1999.90;999.90;;;;;;;7.88;59.07;101684.03;5056857;27;99284;-71
2021/10/14 10:04:36;;;;;;;1999.90;999.90;;;;;;;7.91;58.81;101678.88;5075426;27;97498;-72
2021/10/14 10:07:04;;;;;;;1999.90;999.90;;;;;;;7.93;58.75;101676.31;5056837;27;98876;-69
2021/10/14 10:09:40;;;;;;;1999.90;999.90;;;;;;;7.97;58.88;101673.84;5057938;27;97692;-67
2021/10/14 10:12:08;;;;;;;1999.90;999.90;;;;;;;7.95;58.72;101677.25;5056322;27;97662;-69
2021/10/14 10:14:36;;;;;;;1999.90;999.90;;;;;;;7.99;58.71;101666.88;5040028;27;98076;-66
2021/10/14 10:17:08;;;;;;;1999.90;999.90;;;;;;;7.97;59.12;101665.91;5056183;27;98742;-68
2021/10/14 10:19:45;;;;;;;1999.90;999.90;;;;;;;7.98;59.56;101659.75;5056049;27;98626;-68
2021/10/14 10:22:49;;;;;;;1999.90;999.90;;;;;;;8.01;59.94;101662.56;5056863;27;97031;-66
2021/10/14 10:25:35;;;;;;;1999.90;999.90;;;;;;;8.09;58.59;101653.19;5039002;27;97971;-66
2021/10/14 10:28:06;;;;;;;1999.90;999.90;;;;;;;8.14;58.35;101659.63;5057145;27;97442;-69
2021/10/14 10:30:54;;;;;;;1999.90;999.90;;;;;;;8.15;58.53;101653.47;5056644;27;99762;-66
2021/10/14 10:33:48;;;;;;;1999.90;999.90;;;;;;;8.22;59.18;101657.34;5038990;27;98884;-66
2021/10/14 10:36:44;;;;;;;1999.90;999.90;;;;;;;8.26;59.24;101659.25;5055758;27;96859;-70
2021/10/14 10:39:46;;;;;;;1999.90;999.90;;;;;;;8.33;58.50;101663.09;5056988;27;97178;-69
2021/10/14 10:42:17;;;;;;;1999.90;999.90;;;;;;;8.34;58.42;101667.56;5055581;27;99665;-65
2021/10/14 10:44:47;;;;;;;1999.90;999.90;;;;;;;8.35;57.96;101666.72;5056312;27;97677;-67
2021/10/14 10:47:46;;;;;;;1999.90;999.90;;;;;;;8.38;58.94;101665.13;5055867;27;97783;-70
2021/10/14 10:50:21;;;;;;;1999.90;999.90;;;;;;;8.43;57.68;101667.94;5055309;27;98273;-69
2021/10/14 10:53:01;;;;;;;1999.90;999.90;;;;;;;8.41;59.00;101657.28;5055309;27;99492;-70
2021/10/14 10:55:41;;;;;;;1999.90;999.90;;;;;;;8.47;57.97;101660.25;5059433;27;98807;-70
2021/10/14 10:58:11;;;;;;;1999.90;999.90;;;;;;;8.46;57.99;101646.91;5059202;27;97871;-69
2021/10/14 11:00:40;;;;;;;1999.90;999.90;;;;;;;8.47;57.91;101654.94;5076609;27;97364;-69
2021/10/14 11:03:14;;;;;;;1999.90;999.90;;;;;;;8.48;57.91;101658.47;5058414;27;99058;-68
2021/10/14 11:05:44;;;;;;;1999.90;999.90;;;;;;;8.51;57.87;101648.94;5059510;27;98484;-68